Lock Springs, Missouri
Current Conditions -  °F | °C
As of 4:55 PM on Sunday 23 Nov 2014 (Local Time) from KGPH Reporting Station
Drizzle Drizzle  
Wind Chill: 50°   Ceiling: 700
Heat Index: 50°   Visibility: 7mi
Dew Point: 48°   Wind: 18mph
Humidity: 94%   Direction: 330°NNW
Pressure: 29.34"   Gusts: 23mph
Location:  39.85°N, 93.78°W
Report Text: KGPH 232255Z AUTO 33016G20KT 7SM -DZ BKN007 OVC012 10/09 A2934 RMK AO2
Loading
Personal Weather Stations






























Interactive Weather Map New forecast layout! Learn more

10-Day Weather Forecast

Advertisements
Track Severe Weather on mobile